Time;durP1;ratioP1;P1;durP2;ratioP2;P2;SDS_P1;SDS_P2;PMS_P1;PMS_P2;Temp;Humidity;BMP_temperature;BMP_pressure;BME280_temperature;BME280_humidity;BME280_pressure;Samples;Min_cycle;Max_cycle;Signal;HPM_P1;HPM_P2
2023/01/10 00:00:53;;;;;;;12.83;7.80;;;6.80;99.90;;;;;;5092291;28;20414;-66
2023/01/10 00:03:20;;;;;;;15.93;8.82;;;6.80;99.90;;;;;;5092353;28;20413;-65
2023/01/10 00:05:48;;;;;;;13.38;8.50;;;6.80;99.90;;;;;;5092230;28;20820;-66
2023/01/10 00:08:16;;;;;;;14.23;8.63;;;6.80;99.90;;;;;;5092083;28;20462;-64
2023/01/10 00:10:43;;;;;;;16.80;9.30;;;6.80;99.90;;;;;;5092477;28;20406;-65
2023/01/10 00:13:22;;;;;;;17.65;9.10;;;6.80;99.90;;;;;;5092241;28;20421;-64
2023/01/10 00:15:50;;;;;;;13.90;9.00;;;6.70;99.90;;;;;;5092213;28;20505;-64
2023/01/10 00:18:17;;;;;;;15.07;9.55;;;6.60;99.90;;;;;;5091840;28;20417;-64
2023/01/10 00:20:45;;;;;;;16.08;9.90;;;6.50;99.90;;;;;;5092304;28;20425;-65
2023/01/10 00:23:13;;;;;;;14.18;9.38;;;6.40;99.90;;;;;;5092112;28;20435;-65
2023/01/10 00:25:41;;;;;;;14.23;10.05;;;6.40;99.90;;;;;;5092502;28;20410;-65
2023/01/10 00:28:14;;;;;;;15.40;9.80;;;6.40;99.90;;;;;;5096440;28;20410;-64
2023/01/10 00:30:43;;;;;;;16.45;9.32;;;6.40;99.90;;;;;;5096325;28;20421;-65
2023/01/10 00:33:16;;;;;;;12.90;9.20;;;6.40;99.90;;;;;;5096243;28;20413;-64
2023/01/10 00:35:42;;;;;;;15.00;9.90;;;6.50;99.90;;;;;;5096182;28;20426;-65
2023/01/10 00:38:09;;;;;;;15.15;9.68;;;6.50;99.90;;;;;;5096162;28;20409;-64
2023/01/10 00:40:37;;;;;;;14.20;10.10;;;6.50;99.90;;;;;;5096031;28;20417;-64
2023/01/10 00:45:48;;;;;;;15.95;9.88;;;6.50;99.90;;;;;;5095559;28;20472;-64
2023/01/10 00:48:16;;;;;;;15.30;10.30;;;6.50;99.90;;;;;;5095827;28;20414;-65
2023/01/10 00:50:43;;;;;;;13.67;9.03;;;6.50;99.90;;;;;;5095946;28;20456;-65
2023/01/10 00:53:10;;;;;;;12.75;9.40;;;6.50;99.90;;;;;;5095819;28;20487;-64
2023/01/10 00:55:39;;;;;;;13.27;10.13;;;6.50;99.90;;;;;;5095688;28;20428;-65
2023/01/10 00:58:07;;;;;;;16.23;9.82;;;6.50;99.90;;;;;;5095226;28;20417;-65
2023/01/10 01:00:33;;;;;;;16.53;10.30;;;6.50;99.90;;;;;;5095545;28;20456;-66
2023/01/10 01:03:00;;;;;;;14.50;9.77;;;6.40;99.90;;;;;;5095460;28;20409;-65
2023/01/10 01:05:27;;;;;;;15.90;9.82;;;6.40;99.90;;;;;;5100127;28;20886;-64
2023/01/10 01:07:54;;;;;;;14.33;10.07;;;6.30;99.90;;;;;;5099163;28;20413;-65
2023/01/10 01:10:26;;;;;;;14.82;10.13;;;6.30;99.90;;;;;;5099821;28;20778;-65
2023/01/10 01:12:56;;;;;;;14.85;10.10;;;6.30;99.90;;;;;;5099764;28;20406;-66
2023/01/10 01:15:23;;;;;;;14.88;9.98;;;6.30;99.90;;;;;;5099604;28;20417;-65
2023/01/10 01:17:50;;;;;;;16.23;10.13;;;6.30;99.90;;;;;;5098154;28;20420;-66
2023/01/10 01:20:18;;;;;;;15.48;10.50;;;6.30;99.90;;;;;;5095100;28;20413;-65
2023/01/10 01:22:46;;;;;;;16.50;9.60;;;6.30;99.90;;;;;;5094940;28;20894;-66
2023/01/10 01:25:12;;;;;;;13.57;9.05;;;6.40;99.90;;;;;;5095354;28;20410;-65
2023/01/10 01:27:39;;;;;;;16.48;10.50;;;6.40;99.90;;;;;;5095281;28;20414;-65
2023/01/10 01:30:10;;;;;;;18.83;10.57;;;6.40;99.90;;;;;;5095005;28;20809;-65
2023/01/10 01:32:37;;;;;;;14.00;10.20;;;6.40;99.90;;;;;;5094996;28;20417;-65
2023/01/10 01:35:05;;;;;;;12.93;9.95;;;6.40;99.90;;;;;;5094998;28;20417;-65
2023/01/10 01:37:32;;;;;;;12.05;9.18;;;6.40;99.90;;;;;;5094275;28;20421;-66
2023/01/10 01:39:59;;;;;;;14.25;9.80;;;6.50;99.90;;;;;;5094970;28;20505;-65
2023/01/10 01:42:28;;;;;;;12.98;9.68;;;6.40;99.90;;;;;;5094715;28;20417;-65
2023/01/10 01:45:36;;;;;;;14.68;9.75;;;6.50;99.90;;;;;;5094114;28;20778;-66
2023/01/10 01:48:31;;;;;;;16.25;10.55;;;6.50;99.90;;;;;;5083580;28;20422;-65
2023/01/10 01:51:06;;;;;;;14.10;10.30;;;6.50;99.90;;;;;;5072078;28;20854;-65
2023/01/10 01:53:38;;;;;;;15.02;9.93;;;6.50;99.90;;;;;;5094520;28;20418;-65
2023/01/10 01:56:09;;;;;;;12.95;9.38;;;6.50;99.90;;;;;;5094544;28;20425;-64
2023/01/10 01:58:43;;;;;;;13.55;9.75;;;6.60;99.90;;;;;;5094517;28;20418;-64
2023/01/10 02:01:11;;;;;;;14.88;9.68;;;6.60;99.90;;;;;;5094485;28;20799;-64
2023/01/10 02:03:41;;;;;;;14.00;9.82;;;6.60;99.90;;;;;;5094461;28;20406;-64
2023/01/10 03:40:30;;;;;;;8.02;4.78;;;6.00;99.90;;;;;;5092705;28;20821;-65
2023/01/10 03:45:58;;;;;;;12.30;4.60;;;5.90;99.90;;;;;;5092494;28;20405;-65
2023/01/10 03:48:28;;;;;;;7.97;4.03;;;5.90;99.90;;;;;;5092432;28;20876;-65
2023/01/10 03:50:56;;;;;;;10.57;4.10;;;5.90;99.90;;;;;;5093465;28;20406;-65
2023/01/10 03:53:23;;;;;;;7.78;3.90;;;6.00;99.90;;;;;;5092140;28;20886;-65
2023/01/10 03:55:51;;;;;;;8.13;3.70;;;6.00;99.90;;;;;;5092790;28;20532;-65
2023/01/10 03:58:20;;;;;;;10.13;4.30;;;6.00;99.90;;;;;;5093178;28;20413;-65
2023/01/10 04:00:47;;;;;;;10.43;4.03;;;6.10;99.90;;;;;;5091819;28;20421;-65
2023/01/10 04:03:15;;;;;;;8.80;4.40;;;6.10;99.90;;;;;;5092099;28;20405;-65
2023/01/10 04:05:41;;;;;;;6.35;4.20;;;6.10;99.90;;;;;;5092107;28;20421;-64
2023/01/10 04:10:56;;;;;;;11.75;4.65;;;6.10;99.90;;;;;;5092470;28;20343;-65
2023/01/10 04:13:23;;;;;;;9.25;4.60;;;6.20;99.90;;;;;;5093883;28;20405;-65
2023/01/10 04:15:50;;;;;;;10.50;4.72;;;6.20;99.90;;;;;;5091918;28;20406;-64
2023/01/10 04:18:18;;;;;;;8.15;4.45;;;6.20;99.90;;;;;;5091762;28;20415;-67
2023/01/10 04:20:44;;;;;;;12.10;4.47;;;6.20;99.90;;;;;;5092954;28;20415;-66
2023/01/10 04:23:11;;;;;;;8.55;4.30;;;6.20;99.90;;;;;;5094688;28;20428;-65
2023/01/10 04:25:38;;;;;;;10.55;4.30;;;6.20;99.90;;;;;;5092399;28;20421;-65
2023/01/10 04:28:06;;;;;;;8.95;4.55;;;6.20;99.90;;;;;;5093407;28;20410;-67
2023/01/10 04:30:33;;;;;;;9.95;4.30;;;6.20;99.90;;;;;;5095700;28;20429;-66
2023/01/10 04:33:00;;;;;;;13.93;5.00;;;6.30;99.90;;;;;;5096599;28;20411;-66
2023/01/10 04:35:27;;;;;;;10.43;4.30;;;6.30;99.90;;;;;;5095972;28;20414;-66
2023/01/10 04:37:53;;;;;;;15.68;5.00;;;6.30;99.90;;;;;;5098867;28;20506;-67
2023/01/10 04:40:22;;;;;;;8.98;4.30;;;6.30;99.90;;;;;;5096672;28;20415;-65
2023/01/10 04:42:49;;;;;;;11.43;4.30;;;6.30;99.90;;;;;;5097550;28;20419;-65
2023/01/10 04:45:19;;;;;;;12.90;5.60;;;6.30;99.90;;;;;;5094418;28;20453;-65
2023/01/10 04:47:50;;;;;;;10.77;5.07;;;6.30;99.90;;;;;;5095828;28;20812;-65
2023/01/10 04:50:17;;;;;;;12.10;4.88;;;6.30;99.90;;;;;;5093462;28;20504;-65
2023/01/10 04:52:44;;;;;;;10.73;4.85;;;6.30;99.90;;;;;;5091346;28;20783;-65
2023/01/10 04:55:11;;;;;;;12.27;5.03;;;6.30;99.90;;;;;;5093437;28;20761;-66
2023/01/10 04:57:38;;;;;;;10.93;4.80;;;6.30;99.90;;;;;;5095090;28;20438;-66
2023/01/10 05:00:06;;;;;;;13.90;5.27;;;6.30;99.90;;;;;;5091034;28;20429;-65
2023/01/10 05:02:34;;;;;;;9.77;5.00;;;6.30;99.90;;;;;;5090902;28;20490;-65
2023/01/10 05:05:01;;;;;;;11.82;4.70;;;6.30;99.90;;;;;;5082428;28;20428;-66
2023/01/10 05:07:27;;;;;;;13.00;5.68;;;6.20;99.90;;;;;;5083704;28;20421;-64
2023/01/10 05:09:54;;;;;;;17.65;5.10;;;6.20;99.90;;;;;;5092280;28;20428;-65
2023/01/10 05:12:21;;;;;;;10.38;5.03;;;6.10;99.90;;;;;;5116064;28;20413;-66
2023/01/10 05:14:48;;;;;;;15.40;5.18;;;6.00;99.90;;;;;;5114166;28;20415;-65
2023/01/10 05:17:14;;;;;;;11.23;5.20;;;5.90;99.90;;;;;;5113857;28;20417;-65
2023/01/10 05:19:42;;;;;;;11.50;4.60;;;5.80;99.90;;;;;;5103071;28;20910;-65
2023/01/10 05:22:09;;;;;;;14.18;5.30;;;5.80;99.90;;;;;;5083096;28;20419;-66
2023/01/10 05:24:36;;;;;;;15.27;5.43;;;5.70;99.90;;;;;;5086150;28;20426;-65
2023/01/10 05:27:03;;;;;;;15.98;5.45;;;5.70;99.90;;;;;;5081044;28;20418;-65
2023/01/10 05:29:30;;;;;;;15.52;5.20;;;5.70;99.90;;;;;;5074918;28;20430;-65
2023/01/10 05:31:56;;;;;;;10.77;4.40;;;5.60;99.90;;;;;;5075697;28;20467;-65
2023/01/10 05:34:23;;;;;;;15.18;5.15;;;5.60;99.90;;;;;;5082558;28;20431;-65
2023/01/10 05:36:51;;;;;;;14.40;4.80;;;5.60;99.90;;;;;;5074865;28;20440;-65
2023/01/10 05:39:20;;;;;;;11.65;5.10;;;5.60;99.90;;;;;;5074761;28;20923;-65
2023/01/10 05:41:46;;;;;;;14.65;4.50;;;5.60;99.90;;;;;;5075952;28;20443;-65
2023/01/10 05:44:13;;;;;;;14.88;4.65;;;5.50;99.90;;;;;;5076553;28;20431;-65
2023/01/10 05:46:40;;;;;;;13.82;5.68;;;5.50;99.90;;;;;;5076304;28;20503;-65
2023/01/10 05:49:07;;;;;;;11.00;4.93;;;5.50;99.90;;;;;;5086847;28;20435;-65
2023/01/10 05:51:35;;;;;;;10.48;4.70;;;5.50;99.90;;;;;;5077803;28;20432;-65
2023/01/10 05:54:03;;;;;;;14.90;5.70;;;5.50;99.90;;;;;;5094502;28;20433;-64
2023/01/10 05:56:30;;;;;;;12.75;5.60;;;5.50;99.90;;;;;;5098885;28;20406;-64
2023/01/10 05:58:57;;;;;;;12.20;5.80;;;5.50;99.90;;;;;;5099118;28;20417;-64
2023/01/10 06:01:24;;;;;;;16.10;5.63;;;5.50;99.90;;;;;;5097957;28;20409;-64
2023/01/10 06:03:50;;;;;;;10.43;6.00;;;5.50;99.90;;;;;;5089928;28;20442;-65
2023/01/10 06:06:17;;;;;;;13.05;6.43;;;5.60;99.90;;;;;;5076685;28;20407;-64
2023/01/10 06:08:44;;;;;;;12.55;5.95;;;5.60;99.90;;;;;;5076054;28;20899;-63
2023/01/10 06:11:12;;;;;;;18.05;6.40;;;5.60;99.90;;;;;;5075714;28;20427;-62
2023/01/10 06:13:39;;;;;;;14.75;6.03;;;5.60;99.90;;;;;;5091215;28;20426;-62
2023/01/10 06:16:06;;;;;;;14.82;6.28;;;5.70;99.90;;;;;;5095377;28;20414;-63
2023/01/10 06:18:33;;;;;;;15.93;6.90;;;5.60;99.90;;;;;;5088903;28;20442;-63
2023/01/10 06:21:00;;;;;;;12.23;6.67;;;5.60;99.90;;;;;;5079829;28;20420;-62
2023/01/10 06:23:29;;;;;;;16.88;7.70;;;5.60;99.90;;;;;;5077496;28;20431;-65
2023/01/10 06:25:55;;;;;;;17.40;7.00;;;5.60;99.90;;;;;;5083413;28;20435;-64
2023/01/10 06:28:23;;;;;;;16.37;7.20;;;5.50;99.90;;;;;;5074261;28;20426;-63
2023/01/10 06:30:50;;;;;;;11.77;7.00;;;5.40;99.90;;;;;;5078543;28;20424;-64
2023/01/10 06:33:17;;;;;;;13.40;7.40;;;5.40;99.90;;;;;;5081182;28;20440;-62
2023/01/10 06:35:45;;;;;;;21.25;7.90;;;5.40;99.90;;;;;;5082405;28;20897;-63
2023/01/10 06:38:12;;;;;;;17.83;7.93;;;5.30;99.90;;;;;;5096314;28;20410;-63
2023/01/10 06:40:39;;;;;;;18.85;8.20;;;5.30;99.90;;;;;;5086426;28;20423;-62
2023/01/10 06:43:06;;;;;;;16.50;8.10;;;5.30;99.90;;;;;;5080661;28;20459;-62
2023/01/10 06:45:34;;;;;;;15.93;8.20;;;5.30;99.90;;;;;;5088325;28;20938;-64
2023/01/10 06:48:01;;;;;;;17.38;8.80;;;5.20;99.90;;;;;;5098388;28;20477;-64
2023/01/10 06:50:28;;;;;;;18.63;8.60;;;5.20;99.90;;;;;;5084263;28;20518;-63
2023/01/10 06:52:56;;;;;;;18.33;9.10;;;5.20;99.90;;;;;;5081734;28;20465;-63
2023/01/10 06:55:23;;;;;;;19.45;8.48;;;5.20;99.90;;;;;;5082467;28;20454;-63
2023/01/10 06:57:55;;;;;;;19.38;9.00;;;5.30;99.90;;;;;;5085144;28;20431;-64
2023/01/10 07:00:23;;;;;;;19.23;8.47;;;5.30;99.90;;;;;;5086157;28;20404;-64
2023/01/10 07:02:53;;;;;;;19.80;9.25;;;5.40;99.90;;;;;;5084946;28;20441;-63
2023/01/10 07:05:20;;;;;;;18.40;9.20;;;5.40;99.90;;;;;;5083376;28;20469;-62
2023/01/10 07:07:46;;;;;;;12.45;8.27;;;5.50;99.90;;;;;;5082917;28;20411;-64
2023/01/10 07:10:13;;;;;;;17.27;8.88;;;5.50;99.90;;;;;;5082612;28;20433;-63
2023/01/10 07:12:40;;;;;;;17.30;8.73;;;5.60;99.90;;;;;;5083943;28;20422;-63
2023/01/10 07:15:08;;;;;;;17.27;8.48;;;5.60;99.90;;;;;;5083396;28;20422;-64
2023/01/10 07:17:35;;;;;;;17.60;8.75;;;5.70;99.90;;;;;;5083139;28;20407;-63
2023/01/10 07:20:03;;;;;;;17.48;9.27;;;5.70;99.90;;;;;;5084292;28;20951;-64
2023/01/10 07:22:30;;;;;;;16.80;8.35;;;5.70;99.90;;;;;;5082160;28;20918;-63
2023/01/10 07:24:56;;;;;;;14.73;8.40;;;5.80;99.90;;;;;;5081139;28;20414;-64
2023/01/10 07:27:23;;;;;;;14.43;9.02;;;5.70;99.90;;;;;;5081274;28;20408;-64
2023/01/10 07:29:50;;;;;;;12.60;8.43;;;5.80;99.90;;;;;;5081527;28;20430;-63
2023/01/10 07:32:17;;;;;;;16.75;8.20;;;5.80;99.90;;;;;;5081912;28;20423;-64
2023/01/10 07:34:43;;;;;;;12.75;8.68;;;5.80;99.90;;;;;;5079192;28;20425;-62
2023/01/10 07:37:11;;;;;;;14.37;8.40;;;5.80;99.90;;;;;;5077714;28;20412;-63
2023/01/10 07:39:40;;;;;;;15.75;8.90;;;5.80;99.90;;;;;;5077945;28;20914;-63
2023/01/10 07:42:06;;;;;;;17.83;9.30;;;5.80;99.90;;;;;;5077114;28;20846;-64
2023/01/10 07:44:33;;;;;;;16.88;8.65;;;5.90;99.90;;;;;;5079464;28;20481;-62
2023/01/10 07:47:00;;;;;;;17.05;8.18;;;5.90;99.90;;;;;;5076949;28;20411;-62
2023/01/10 07:49:27;;;;;;;15.85;8.13;;;6.00;99.90;;;;;;5078910;28;20439;-62
2023/01/10 07:51:54;;;;;;;13.73;8.18;;;6.00;99.90;;;;;;5077216;28;20428;-62
2023/01/10 07:54:22;;;;;;;15.43;8.70;;;6.10;99.90;;;;;;5074872;28;20419;-62
2023/01/10 07:56:49;;;;;;;16.00;9.18;;;6.10;99.90;;;;;;5073981;28;20498;-61
2023/01/10 07:59:16;;;;;;;13.60;8.88;;;6.10;99.90;;;;;;5073637;28;20416;-63
2023/01/10 08:01:43;;;;;;;15.32;8.80;;;6.10;99.90;;;;;;5073648;28;20411;-62
2023/01/10 08:04:09;;;;;;;18.70;8.35;;;6.10;99.90;;;;;;5072418;28;20852;-63
2023/01/10 08:06:36;;;;;;;13.68;8.05;;;6.10;99.90;;;;;;5072653;28;20422;-62
2023/01/10 08:09:04;;;;;;;17.05;8.38;;;6.20;99.90;;;;;;5072913;28;20411;-62
2023/01/10 08:11:32;;;;;;;13.52;7.60;;;6.20;99.90;;;;;;5078701;28;20419;-62
2023/01/10 08:13:59;;;;;;;12.73;7.90;;;6.20;99.90;;;;;;5079858;28;20495;-62
2023/01/10 08:16:26;;;;;;;16.70;8.50;;;6.30;99.90;;;;;;5077811;28;20411;-63
2023/01/10 08:18:53;;;;;;;14.38;8.63;;;6.30;99.90;;;;;;5077440;28;20411;-62
2023/01/10 08:21:19;;;;;;;16.90;8.43;;;6.40;99.90;;;;;;5077551;28;20476;-61
2023/01/10 08:23:46;;;;;;;17.40;8.73;;;6.40;99.90;;;;;;5077403;28;20430;-61
2023/01/10 08:26:13;;;;;;;18.27;8.50;;;6.50;99.90;;;;;;5074718;28;20418;-62
2023/01/10 08:28:41;;;;;;;16.85;8.40;;;6.50;99.90;;;;;;5075349;28;20416;-62
2023/01/10 08:31:08;;;;;;;15.70;8.30;;;6.60;99.90;;;;;;5074694;28;20920;-63
2023/01/10 08:33:37;;;;;;;14.35;7.95;;;6.60;99.90;;;;;;5074216;28;20418;-62
2023/01/10 08:36:04;;;;;;;14.52;8.30;;;6.60;99.90;;;;;;5074870;28;20434;-61
2023/01/10 08:38:31;;;;;;;13.30;8.20;;;6.70;99.90;;;;;;5075846;28;20412;-61
2023/01/10 08:40:58;;;;;;;12.13;8.40;;;6.70;99.90;;;;;;5075475;28;20412;-62
2023/01/10 08:43:25;;;;;;;14.10;7.78;;;6.70;99.90;;;;;;5074189;28;20415;-60
2023/01/10 08:45:53;;;;;;;16.35;7.70;;;6.80;99.90;;;;;;5073751;28;20407;-62
2023/01/10 08:48:20;;;;;;;15.68;8.10;;;6.80;99.90;;;;;;5072999;28;20411;-62
2023/01/10 08:50:46;;;;;;;14.80;8.65;;;6.80;99.90;;;;;;5073762;28;20428;-62
2023/01/10 08:53:13;;;;;;;17.38;8.80;;;6.90;99.90;;;;;;5073313;28;20403;-62
2023/01/10 08:55:40;;;;;;;12.63;7.80;;;6.90;99.90;;;;;;5072974;28;20427;-62
2023/01/10 08:58:07;;;;;;;14.95;7.70;;;6.90;99.90;;;;;;5078002;28;20423;-61
2023/01/10 09:00:33;;;;;;;15.77;7.60;;;6.90;99.90;;;;;;5079694;28;20483;-62
2023/01/10 09:03:02;;;;;;;18.67;8.40;;;6.90;99.90;;;;;;5080206;28;20453;-62
2023/01/10 09:05:28;;;;;;;11.82;7.47;;;6.90;99.90;;;;;;5079877;28;20441;-61
2023/01/10 09:07:59;;;;;;;13.80;7.93;;;6.90;99.90;;;;;;5079848;28;20411;-62
2023/01/10 09:10:26;;;;;;;17.45;8.60;;;6.90;99.90;;;;;;5076171;28;20857;-62
2023/01/10 09:12:58;;;;;;;15.00;8.73;;;6.90;99.90;;;;;;5075694;28;20412;-62
2023/01/10 09:15:26;;;;;;;16.23;9.20;;;6.80;99.90;;;;;;5075396;28;20408;-63
2023/01/10 09:17:54;;;;;;;14.50;8.60;;;6.90;99.90;;;;;;5077458;28;20912;-62
2023/01/10 09:20:24;;;;;;;17.10;8.90;;;7.00;99.90;;;;;;5088817;28;20415;-61
2023/01/10 09:22:52;;;;;;;14.37;8.73;;;7.10;99.90;;;;;;5090311;28;20426;-63
2023/01/10 09:25:19;;;;;;;17.38;9.00;;;7.10;99.90;;;;;;5088691;28;20420;-62
2023/01/10 09:27:46;;;;;;;15.68;8.90;;;7.20;99.90;;;;;;5089543;28;20875;-63
2023/01/10 09:30:13;;;;;;;13.85;9.30;;;7.30;99.90;;;;;;5087571;28;20415;-64
2023/01/10 09:32:40;;;;;;;15.32;9.15;;;7.40;99.90;;;;;;5082959;28;20422;-62
2023/01/10 09:35:07;;;;;;;18.85;10.45;;;7.40;99.90;;;;;;5077666;28;20864;-63
2023/01/10 09:37:38;;;;;;;13.20;9.60;;;7.40;99.90;;;;;;5078303;28;20426;-64
2023/01/10 09:40:07;;;;;;;17.33;10.32;;;7.40;99.90;;;;;;5076802;28;20419;-62
2023/01/10 09:42:45;;;;;;;17.42;10.20;;;7.40;99.90;;;;;;5076322;28;20487;-63
2023/01/10 09:45:17;;;;;;;17.08;10.93;;;7.40;99.90;;;;;;5077200;28;20435;-63
2023/01/10 09:47:53;;;;;;;18.27;10.95;;;7.40;99.90;;;;;;5076919;28;20446;-63
2023/01/10 09:50:26;;;;;;;18.30;11.00;;;7.40;99.90;;;;;;5077196;28;20912;-64
2023/01/10 09:52:58;;;;;;;18.00;10.60;;;7.40;99.90;;;;;;5076212;28;20495;-63
2023/01/10 09:55:28;;;;;;;17.48;10.60;;;7.40;99.90;;;;;;5075958;28;20438;-63
2023/01/10 09:57:58;;;;;;;18.52;10.30;;;7.40;99.90;;;;;;5075850;28;20498;-63
2023/01/10 10:00:34;;;;;;;17.57;10.00;;;7.40;99.90;;;;;;5076485;28;20900;-62
2023/01/10 10:03:02;;;;;;;17.85;11.07;;;7.40;99.90;;;;;;5078017;28;20753;-62
2023/01/10 10:05:29;;;;;;;19.42;11.60;;;7.40;99.90;;;;;;5077123;28;20407;-64
2023/01/10 10:08:01;;;;;;;20.83;10.80;;;7.40;99.90;;;;;;5076086;28;20882;-63
2023/01/10 10:10:35;;;;;;;17.85;11.40;;;7.40;99.90;;;;;;5075684;28;20423;-62
2023/01/10 10:13:16;;;;;;;19.80;11.23;;;7.40;99.90;;;;;;5077986;28;20415;-62
2023/01/10 10:15:49;;;;;;;18.10;11.63;;;7.50;99.90;;;;;;5076758;28;20408;-62
2023/01/10 10:18:29;;;;;;;18.95;11.73;;;7.50;99.90;;;;;;5076429;28;20415;-62
2023/01/10 10:21:01;;;;;;;19.80;12.50;;;7.50;99.90;;;;;;5074999;28;20404;-62
2023/01/10 10:23:54;;;;;;;19.35;12.00;;;7.50;99.90;;;;;;5074700;28;20963;-62
2023/01/10 10:26:32;;;;;;;18.38;12.52;;;7.60;99.90;;;;;;5074583;28;20411;-61
2023/01/10 10:29:27;;;;;;;18.65;11.73;;;7.70;99.90;;;;;;5075182;28;20411;-62
2023/01/10 10:32:16;;;;;;;18.27;11.70;;;7.80;99.90;;;;;;5080696;28;20495;-62
2023/01/10 10:34:46;;;;;;;16.90;12.77;;;7.80;99.90;;;;;;5075179;28;20485;-62
2023/01/10 10:37:20;;;;;;;18.55;12.73;;;7.90;99.90;;;;;;5074522;28;20495;-62
2023/01/10 10:39:52;;;;;;;14.77;11.95;;;7.90;99.90;;;;;;5074529;28;20875;-63
2023/01/10 10:42:19;;;;;;;17.25;11.75;;;8.00;99.90;;;;;;5074658;28;20431;-63
2023/01/10 10:44:52;;;;;;;17.38;11.95;;;8.10;99.90;;;;;;5074922;28;20892;-62
2023/01/10 10:47:21;;;;;;;23.75;11.70;;;8.10;99.90;;;;;;5077889;28;20476;-62
2023/01/10 10:49:54;;;;;;;18.52;11.55;;;8.10;99.90;;;;;;5080876;28;20424;-62
2023/01/10 10:52:25;;;;;;;19.75;11.73;;;8.20;99.90;;;;;;5078573;28;20910;-63
2023/01/10 10:54:54;;;;;;;17.10;11.55;;;8.20;99.90;;;;;;5077951;28;20430;-63
2023/01/10 10:57:25;;;;;;;18.63;11.45;;;8.20;99.90;;;;;;5075986;28;20419;-63
2023/01/10 10:59:52;;;;;;;18.60;11.10;;;8.10;99.90;;;;;;5074356;28;20456;-63
2023/01/10 11:02:24;;;;;;;15.18;10.60;;;8.10;99.90;;;;;;5073690;28;20418;-64
2023/01/10 11:04:53;;;;;;;18.08;9.90;;;8.00;99.90;;;;;;5075149;28;20447;-63
2023/01/10 11:07:20;;;;;;;16.83;10.50;;;8.00;99.90;;;;;;5074939;28;20411;-63
2023/01/10 11:09:50;;;;;;;17.10;10.07;;;8.00;99.90;;;;;;5080731;28;20479;-63
2023/01/10 11:12:21;;;;;;;17.00;10.07;;;8.00;99.90;;;;;;5085150;28;20419;-64
2023/01/10 11:14:50;;;;;;;16.30;9.00;;;8.00;99.90;;;;;;5088508;28;20415;-63
2023/01/10 11:17:24;;;;;;;19.05;9.70;;;8.10;99.90;;;;;;5088648;28;20411;-63
2023/01/10 11:20:01;;;;;;;14.10;9.20;;;8.10;99.90;;;;;;5089211;28;20483;-63
2023/01/10 11:22:31;;;;;;;16.60;9.50;;;8.20;99.90;;;;;;5086913;28;20452;-63
2023/01/10 11:25:01;;;;;;;13.55;9.68;;;8.20;99.90;;;;;;5088534;28;20423;-63
2023/01/10 11:27:31;;;;;;;20.50;10.40;;;8.20;99.90;;;;;;5087691;28;20422;-64
2023/01/10 11:30:00;;;;;;;17.48;9.90;;;8.20;99.90;;;;;;5078063;28;20484;-63
2023/01/10 11:32:34;;;;;;;14.68;9.73;;;8.20;99.90;;;;;;5073700;28;20433;-63
2023/01/10 11:35:06;;;;;;;16.77;9.10;;;8.20;99.90;;;;;;5074815;28;20412;-62
2023/01/10 11:37:34;;;;;;;18.45;10.07;;;8.20;99.90;;;;;;5073602;28;20846;-64
2023/01/10 11:40:26;;;;;;;17.20;10.10;;;8.10;99.90;;;;;;5074029;28;20539;-63
2023/01/10 11:42:58;;;;;;;18.58;10.20;;;8.10;99.90;;;;;;5050099;28;20416;-62
2023/01/10 11:45:30;;;;;;;19.50;10.70;;;8.10;99.90;;;;;;5077374;28;20427;-64
2023/01/10 11:48:09;;;;;;;20.27;10.68;;;8.10;99.90;;;;;;5083437;28;20411;-63
2023/01/10 11:50:39;;;;;;;21.70;10.97;;;8.10;99.90;;;;;;5084420;28;20424;-63
2023/01/10 11:53:07;;;;;;;18.40;11.55;;;8.20;99.90;;;;;;5084801;28;20427;-63
2023/01/10 11:55:37;;;;;;;20.60;11.10;;;8.20;99.90;;;;;;5086029;28;20524;-63
2023/01/10 11:58:08;;;;;;;16.20;10.60;;;8.20;99.90;;;;;;5087125;28;20497;-63
2023/01/10 12:00:39;;;;;;;20.08;11.02;;;8.20;99.90;;;;;;5084498;28;20427;-63
2023/01/10 12:03:27;;;;;;;17.20;9.90;;;8.20;99.90;;;;;;5085278;28;20423;-64
2023/01/10 12:05:57;;;;;;;19.13;9.70;;;8.20;99.90;;;;;;5082471;28;20887;-63
2023/01/10 12:08:30;;;;;;;19.52;9.40;;;8.30;99.90;;;;;;5084260;28;20411;-62
2023/01/10 12:11:02;;;;;;;17.83;10.18;;;8.30;99.90;;;;;;5081452;28;20415;-63
2023/01/10 12:13:44;;;;;;;22.67;9.40;;;8.30;99.90;;;;;;5081469;28;20418;-63
2023/01/10 12:16:20;;;;;;;12.70;8.63;;;8.30;99.90;;;;;;5085177;28;20407;-64
2023/01/10 12:18:49;;;;;;;18.40;9.20;;;8.30;99.90;;;;;;5084392;28;20422;-63
2023/01/10 12:21:19;;;;;;;21.88;9.00;;;8.30;99.90;;;;;;5087191;28;20771;-63
2023/01/10 12:23:48;;;;;;;20.13;8.77;;;8.30;99.90;;;;;;5085916;28;20407;-62
2023/01/10 12:26:16;;;;;;;21.60;8.93;;;8.30;99.90;;;;;;5081087;28;20422;-63
2023/01/10 12:28:48;;;;;;;14.68;9.25;;;8.40;99.90;;;;;;5077282;28;20919;-63
2023/01/10 12:31:16;;;;;;;14.82;8.20;;;8.40;99.90;;;;;;5079837;28;20403;-63
2023/01/10 12:33:48;;;;;;;17.08;8.05;;;8.60;99.90;;;;;;5076991;28;20423;-62
2023/01/10 12:36:25;;;;;;;26.17;9.55;;;8.60;99.90;;;;;;5077468;28;20418;-62
2023/01/10 12:39:04;;;;;;;19.10;8.30;;;8.60;99.90;;;;;;5077558;28;20429;-63
2023/01/10 12:44:34;;;;;;;16.05;8.63;;;8.60;99.90;;;;;;5082344;28;20445;-63
2023/01/10 12:47:09;;;;;;;13.70;7.78;;;8.60;99.90;;;;;;5083012;28;20437;-63
2023/01/10 12:49:43;;;;;;;16.55;7.70;;;8.60;99.90;;;;;;5082939;28;20415;-63
2023/01/10 12:52:14;;;;;;;15.00;7.45;;;8.60;99.90;;;;;;5081702;28;20509;-63
2023/01/10 12:54:41;;;;;;;16.48;7.20;;;8.50;99.90;;;;;;5082682;28;20872;-62
2023/01/10 12:57:20;;;;;;;17.33;7.90;;;8.50;99.90;;;;;;5085677;28;20427;-63
2023/01/10 12:59:49;;;;;;;15.57;7.03;;;8.50;99.90;;;;;;5081170;28;20415;-63
2023/01/10 13:02:19;;;;;;;16.58;7.72;;;8.50;99.90;;;;;;5086273;28;20411;-63
2023/01/10 13:04:50;;;;;;;14.32;6.63;;;8.40;99.90;;;;;;5100237;28;20472;-62
2023/01/10 13:07:18;;;;;;;11.80;5.75;;;8.40;99.90;;;;;;5087775;28;20508;-65
2023/01/10 13:09:47;;;;;;;14.43;5.95;;;8.40;99.90;;;;;;5090591;28;20507;-63
2023/01/10 13:12:20;;;;;;;14.15;6.38;;;8.40;99.90;;;;;;5087603;28;20429;-64
2023/01/10 13:14:54;;;;;;;14.80;5.80;;;8.40;99.90;;;;;;5101599;28;20508;-64
2023/01/10 13:17:33;;;;;;;13.95;6.03;;;8.40;99.90;;;;;;5094692;28;20411;-60
2023/01/10 13:20:38;;;;;;;11.20;5.80;;;8.40;99.90;;;;;;5087386;28;20509;-63
2023/01/10 13:23:25;;;;;;;17.92;5.90;;;8.40;99.90;;;;;;5096542;28;20424;-63
2023/01/10 13:25:57;;;;;;;12.35;5.93;;;8.40;99.90;;;;;;5095945;28;20491;-63
2023/01/10 13:28:25;;;;;;;14.85;5.90;;;8.40;99.90;;;;;;5075196;28;20430;-64
2023/01/10 13:30:55;;;;;;;11.55;5.18;;;8.30;99.90;;;;;;5089224;28;20418;-62
2023/01/10 13:33:25;;;;;;;13.57;5.28;;;8.30;99.90;;;;;;5095319;28;20470;-61
2023/01/10 13:35:54;;;;;;;15.93;5.45;;;8.30;99.90;;;;;;5081413;28;20514;-64
2023/01/10 13:38:25;;;;;;;14.57;5.63;;;8.20;99.90;;;;;;5081336;28;20486;-63
2023/01/10 13:41:01;;;;;;;14.82;6.30;;;8.20;99.90;;;;;;5086345;28;20429;-64
2023/01/10 13:43:52;;;;;;;15.98;6.20;;;8.20;99.90;;;;;;5102787;28;20438;-62
2023/01/10 13:46:40;;;;;;;14.60;6.22;;;8.20;99.90;;;;;;5094210;28;20463;-64
2023/01/10 13:49:43;;;;;;;15.73;5.43;;;8.20;99.90;;;;;;5086841;28;20441;-62
2023/01/10 13:52:40;;;;;;;9.80;5.80;;;8.20;99.90;;;;;;5091645;28;20435;-63
2023/01/10 13:55:32;;;;;;;17.33;5.82;;;8.20;99.90;;;;;;5091644;28;20912;-64
2023/01/10 13:58:01;;;;;;;13.43;6.00;;;8.20;99.90;;;;;;5100150;28;21068;-63
2023/01/10 14:03:49;;;;;;;18.17;6.20;;;8.10;99.90;;;;;;5086016;28;20422;-64
2023/01/10 14:06:36;;;;;;;13.90;6.37;;;8.00;99.90;;;;;;5084800;28;20415;-63
2023/01/10 14:09:07;;;;;;;18.40;7.00;;;8.00;99.90;;;;;;5087843;28;20418;-63
2023/01/10 14:11:51;;;;;;;18.75;6.60;;;8.10;99.90;;;;;;5089842;28;20407;-63
2023/01/10 14:14:21;;;;;;;12.65;5.38;;;8.00;99.90;;;;;;5087099;28;20412;-61
2023/01/10 14:16:52;;;;;;;14.25;5.75;;;8.00;99.90;;;;;;5086140;28;20420;-63
2023/01/10 14:19:28;;;;;;;12.10;5.63;;;8.00;99.90;;;;;;5088210;28;20412;-64
2023/01/10 14:21:58;;;;;;;13.80;5.90;;;8.00;99.90;;;;;;5087723;28;20427;-63
2023/01/10 14:24:27;;;;;;;17.10;6.10;;;8.00;99.90;;;;;;5086420;28;20433;-63
2023/01/10 14:26:56;;;;;;;12.40;6.00;;;8.00;99.90;;;;;;5087229;28;20463;-63
2023/01/10 14:29:23;;;;;;;12.48;6.15;;;8.00;99.90;;;;;;5087019;28;20412;-65
2023/01/10 14:31:52;;;;;;;9.65;5.10;;;8.00;99.90;;;;;;5082522;28;20416;-62
2023/01/10 14:34:21;;;;;;;13.95;6.10;;;8.00;99.90;;;;;;5084365;28;20419;-63
2023/01/10 14:36:57;;;;;;;14.35;6.28;;;8.00;99.90;;;;;;5085714;28;20783;-64
2023/01/10 14:39:24;;;;;;;15.18;5.30;;;7.90;99.90;;;;;;5084255;28;20910;-63
2023/01/10 14:41:56;;;;;;;14.80;5.32;;;7.90;99.90;;;;;;5083759;28;20502;-65
2023/01/10 14:44:27;;;;;;;12.93;6.60;;;7.90;99.90;;;;;;5082808;28;20542;-65
2023/01/10 14:46:56;;;;;;;14.18;7.00;;;7.90;99.90;;;;;;5084081;28;20421;-64
2023/01/10 14:49:26;;;;;;;14.25;6.20;;;7.80;99.90;;;;;;5082983;28;20415;-63